createdAt,value
2022-12-17T00:02:28.802Z,2.36
2022-12-17T00:05:13.824Z,2.34
2022-12-17T00:07:59.283Z,2.31
2022-12-17T00:10:44.784Z,2.29
2022-12-17T00:13:37.115Z,2.27
2022-12-17T00:16:22.680Z,2.23
2022-12-17T00:19:08.066Z,2.20
2022-12-17T00:21:53.372Z,2.15
2022-12-17T00:24:41.595Z,2.10
2022-12-17T00:27:27.052Z,2.06
2022-12-17T00:30:12.496Z,2.03
2022-12-17T00:32:58.013Z,2.00
2022-12-17T00:35:43.276Z,1.97
2022-12-17T00:38:33.336Z,1.95
2022-12-17T00:41:18.633Z,1.92
2022-12-17T00:44:04.013Z,1.87
2022-12-17T00:46:49.458Z,1.82
2022-12-17T00:49:35.094Z,1.80
2022-12-17T00:52:20.345Z,1.77
2022-12-17T00:55:05.800Z,1.76
2022-12-17T00:57:51.245Z,1.73
2022-12-17T01:00:37.247Z,1.70
2022-12-17T01:03:26.882Z,1.66
2022-12-17T01:06:12.281Z,1.63
2022-12-17T01:08:57.660Z,1.58
2022-12-17T01:11:43.340Z,1.56
2022-12-17T01:14:28.635Z,1.53
2022-12-17T01:17:15.411Z,1.50
2022-12-17T01:20:00.725Z,1.47
2022-12-17T01:22:46.052Z,1.44
2022-12-17T01:25:32.393Z,1.42
2022-12-17T01:28:17.667Z,1.41
2022-12-17T01:31:02.989Z,1.37
2022-12-17T01:33:50.589Z,1.34
2022-12-17T01:36:37.721Z,1.29
2022-12-17T01:39:23.013Z,1.27
2022-12-17T01:42:08.298Z,1.25
2022-12-17T01:45:13.632Z,1.25
2022-12-17T01:48:08.129Z,1.20
2022-12-17T01:50:56.338Z,1.17
2022-12-17T01:53:44.661Z,1.15
2022-12-17T01:56:30.638Z,1.13
2022-12-17T01:59:16.963Z,1.10
2022-12-17T02:02:02.417Z,1.09
2022-12-17T02:04:48.436Z,1.08
2022-12-17T02:07:53.118Z,1.05
2022-12-17T02:10:56.455Z,1.03
2022-12-17T02:13:50.206Z,1.03
2022-12-17T02:16:55.287Z,1.01
2022-12-17T02:19:55.503Z,1.01
2022-12-17T02:23:03.091Z,1.02
2022-12-17T02:25:51.458Z,0.99
2022-12-17T02:28:37.877Z,0.97
2022-12-17T02:31:24.675Z,0.96
2022-12-17T02:34:10.465Z,0.96
2022-12-17T02:36:55.828Z,0.94
2022-12-17T02:39:41.157Z,0.92
2022-12-17T02:42:26.517Z,0.91
2022-12-17T02:45:14.841Z,0.91
2022-12-17T02:48:01.249Z,0.90
2022-12-17T02:50:46.866Z,0.88
2022-12-17T02:53:33.979Z,0.86
2022-12-17T02:56:19.643Z,0.87
2022-12-17T02:59:04.949Z,0.86
2022-12-17T03:01:52.049Z,0.86
2022-12-17T03:04:37.465Z,0.85
2022-12-17T03:07:25.051Z,0.83
2022-12-17T03:10:10.494Z,0.83
2022-12-17T03:13:00.287Z,0.79
2022-12-17T03:15:45.594Z,0.76
2022-12-17T03:18:30.937Z,0.74
2022-12-17T03:21:21.454Z,0.69
2022-12-17T03:24:20.375Z,0.69
2022-12-17T03:27:05.705Z,0.67
2022-12-17T03:29:51.188Z,0.63
2022-12-17T03:32:36.697Z,0.60
2022-12-17T03:35:22.272Z,0.57
2022-12-17T03:38:07.326Z,0.55
2022-12-17T03:40:52.586Z,0.54
2022-12-17T03:43:38.132Z,0.51
2022-12-17T03:46:23.630Z,0.49
2022-12-17T03:49:09.015Z,0.46
2022-12-17T03:51:54.523Z,0.43
2022-12-17T03:54:39.896Z,0.42
2022-12-17T03:57:25.406Z,0.39
2022-12-17T04:00:10.554Z,0.39
2022-12-17T04:02:59.102Z,0.38
2022-12-17T04:05:44.930Z,0.37
2022-12-17T04:08:30.295Z,0.35
2022-12-17T04:11:15.746Z,0.38
2022-12-17T04:14:01.076Z,0.38
2022-12-17T04:16:46.354Z,0.38
2022-12-17T04:19:31.489Z,0.36
2022-12-17T04:22:16.795Z,0.36
2022-12-17T04:25:02.078Z,0.36
2022-12-17T04:27:47.522Z,0.37
2022-12-17T04:30:32.732Z,0.37
2022-12-17T04:33:18.059Z,0.38
2022-12-17T04:36:03.313Z,0.38
2022-12-17T04:38:48.673Z,0.37
2022-12-17T04:41:34.038Z,0.36
2022-12-17T04:44:19.556Z,0.34
2022-12-17T04:47:04.906Z,0.32
2022-12-17T04:49:50.117Z,0.31
2022-12-17T04:52:35.471Z,0.31
2022-12-17T04:55:20.713Z,0.32
2022-12-17T04:58:06.056Z,0.30
2022-12-17T05:00:51.436Z,0.26
2022-12-17T05:03:37.348Z,0.25
2022-12-17T05:06:23.224Z,0.23
2022-12-17T05:09:08.522Z,0.23
2022-12-17T05:11:53.582Z,0.24
2022-12-17T05:14:39.027Z,0.22
2022-12-17T05:17:24.889Z,0.20
2022-12-17T05:20:10.296Z,0.19
2022-12-17T05:22:55.657Z,0.15
2022-12-17T05:25:41.077Z,0.13
2022-12-17T05:28:26.485Z,0.09
2022-12-17T05:31:14.777Z,0.06
2022-12-17T05:34:00.746Z,0.05
2022-12-17T05:36:46.058Z,0.05
2022-12-17T05:39:31.418Z,0.00
2022-12-17T05:42:16.708Z,-0.03
2022-12-17T05:45:02.028Z,-0.06
2022-12-17T05:47:47.370Z,-0.08
2022-12-17T05:50:32.751Z,-0.11
2022-12-17T05:53:22.601Z,-0.14
2022-12-17T05:56:11.816Z,-0.14
2022-12-17T05:58:57.832Z,-0.17
2022-12-17T06:01:43.238Z,-0.19
2022-12-17T06:04:29.089Z,-0.22
2022-12-17T06:07:14.420Z,-0.25
2022-12-17T06:09:59.790Z,-0.29
2022-12-17T06:12:45.253Z,-0.31
2022-12-17T06:15:30.664Z,-0.35
2022-12-17T06:18:17.274Z,-0.36
2022-12-17T06:21:03.643Z,-0.40
2022-12-17T06:23:48.935Z,-0.42
2022-12-17T06:26:34.352Z,-0.42
2022-12-17T06:29:19.657Z,-0.40
2022-12-17T06:32:04.873Z,-0.41
2022-12-17T06:34:50.454Z,-0.43
2022-12-17T06:37:36.113Z,-0.46
2022-12-17T06:40:21.553Z,-0.48
2022-12-17T06:43:14.067Z,-0.51
2022-12-17T06:46:01.154Z,-0.55
2022-12-17T06:48:46.354Z,-0.59
2022-12-17T06:51:31.785Z,-0.60
2022-12-17T06:54:17.164Z,-0.62
2022-12-17T06:57:02.606Z,-0.63
2022-12-17T06:59:47.956Z,-0.64
2022-12-17T07:02:33.720Z,-0.66
2022-12-17T07:05:19.032Z,-0.68
2022-12-17T07:08:04.366Z,-0.70
2022-12-17T07:10:49.900Z,-0.72
2022-12-17T07:13:35.244Z,-0.74
2022-12-17T07:16:21.002Z,-0.74
2022-12-17T07:19:06.390Z,-0.75
2022-12-17T07:21:51.745Z,-0.76
2022-12-17T07:24:37.276Z,-0.79
2022-12-17T07:27:22.566Z,-0.79
2022-12-17T07:30:07.995Z,-0.81
2022-12-17T07:32:53.330Z,-0.82
2022-12-17T07:35:39.747Z,-0.83
2022-12-17T07:38:25.027Z,-0.87
2022-12-17T07:41:11.351Z,-1.16
2022-12-17T07:43:56.786Z,-1.65
2022-12-17T07:46:42.641Z,-2.00
2022-12-17T07:49:27.941Z,-2.31
2022-12-17T07:52:13.432Z,-2.53
2022-12-17T07:55:05.422Z,-2.74
2022-12-17T07:57:52.852Z,-2.93
2022-12-17T08:00:37.963Z,-3.03
2022-12-17T08:03:23.388Z,-3.16
2022-12-17T08:06:08.466Z,-3.28
2022-12-17T08:08:55.353Z,-3.28
2022-12-17T08:11:43.814Z,-3.32
2022-12-17T08:14:29.924Z,-3.32
2022-12-17T08:17:18.658Z,-3.36
2022-12-17T08:20:08.241Z,-3.37
2022-12-17T08:23:00.993Z,-3.42
2022-12-17T08:25:46.876Z,-3.39
2022-12-17T08:31:37.697Z,-3.29
2022-12-17T08:34:23.059Z,-3.20
2022-12-17T08:37:08.396Z,-3.10
2022-12-17T08:39:53.708Z,-3.03
2022-12-17T08:42:39.102Z,-3.01
2022-12-17T08:45:24.567Z,-2.99
2022-12-17T08:48:09.908Z,-2.96
2022-12-17T08:50:55.336Z,-2.96
2022-12-17T08:53:41.444Z,-2.94
2022-12-17T08:56:27.077Z,-2.91
2022-12-17T08:59:12.456Z,-2.88
2022-12-17T09:01:57.795Z,-2.84
2022-12-17T09:04:43.293Z,-2.77
2022-12-17T09:07:28.801Z,-2.74
2022-12-17T09:10:14.258Z,-2.70
2022-12-17T09:13:04.418Z,-2.67
2022-12-17T09:15:50.563Z,-2.62
2022-12-17T09:18:41.972Z,-2.58
2022-12-17T09:21:27.260Z,-2.55
2022-12-17T09:24:12.543Z,-2.51
2022-12-17T09:26:57.983Z,-2.43
2022-12-17T09:29:43.424Z,-2.38
2022-12-17T09:32:28.932Z,-2.28
2022-12-17T09:35:14.342Z,-2.19
2022-12-17T09:37:59.768Z,-2.13
2022-12-17T09:40:45.001Z,-2.11
2022-12-17T09:43:33.660Z,-2.06
2022-12-17T09:46:21.897Z,-1.99
2022-12-17T09:49:10.420Z,-1.95
2022-12-17T09:51:55.554Z,-1.86
2022-12-17T09:54:44.853Z,-1.77
2022-12-17T09:57:33.271Z,-1.68
2022-12-17T10:00:18.828Z,-1.60
2022-12-17T10:03:05.174Z,-1.54
2022-12-17T10:05:50.604Z,-1.44
2022-12-17T10:08:37.345Z,-1.37
2022-12-17T10:11:41.460Z,-1.32
2022-12-17T10:14:37.016Z,-1.22
2022-12-17T10:17:22.400Z,-1.17
2022-12-17T10:20:08.385Z,-1.11
2022-12-17T10:23:04.010Z,-1.03
2022-12-17T10:25:49.704Z,-0.99
2022-12-17T10:28:39.073Z,-0.87
2022-12-17T10:31:34.163Z,-0.80
2022-12-17T10:34:19.640Z,-0.76
2022-12-17T10:37:08.566Z,-0.74
2022-12-17T10:39:53.992Z,-0.69
2022-12-17T10:42:40.865Z,-0.64
2022-12-17T10:45:45.297Z,-0.60
2022-12-17T10:48:37.932Z,-0.54
2022-12-17T10:51:23.324Z,-0.46
2022-12-17T10:54:09.073Z,-0.40
2022-12-17T10:57:01.233Z,-0.34
2022-12-17T10:59:54.242Z,-0.25
2022-12-17T11:05:47.685Z,-0.11
2022-12-17T11:08:35.814Z,-0.06
2022-12-17T11:11:21.391Z,-0.02
2022-12-17T11:14:06.848Z,0.05
2022-12-17T11:17:08.939Z,0.10
2022-12-17T11:20:03.554Z,0.17
2022-12-17T11:23:07.957Z,0.23
2022-12-17T11:25:56.160Z,0.30
2022-12-17T11:28:42.573Z,0.34
2022-12-17T11:31:38.524Z,0.42
2022-12-17T11:34:36.805Z,0.43
2022-12-17T11:37:28.234Z,0.49
2022-12-17T11:40:13.575Z,0.54
2022-12-17T11:42:59.462Z,0.57
2022-12-17T11:45:47.777Z,0.61
2022-12-17T11:48:40.367Z,0.67
2022-12-17T11:51:28.377Z,0.75
2022-12-17T11:54:20.775Z,0.79
2022-12-17T11:57:11.211Z,0.89
2022-12-17T12:00:04.517Z,0.94
2022-12-17T12:03:09.222Z,1.00
2022-12-17T12:06:08.714Z,1.03
2022-12-17T12:09:00.235Z,1.01
2022-12-17T12:11:58.915Z,0.88
2022-12-17T12:14:47.627Z,0.96
2022-12-17T12:17:33.036Z,1.05
2022-12-17T12:20:18.589Z,1.13
2022-12-17T12:23:15.614Z,1.16
2022-12-17T12:26:05.025Z,1.15
2022-12-17T12:28:56.526Z,1.22
2022-12-17T12:31:48.556Z,1.33
2022-12-17T12:34:35.994Z,1.31
2022-12-17T12:37:21.993Z,1.29
2022-12-17T12:40:09.672Z,1.21
2022-12-17T12:43:05.714Z,1.11
2022-12-17T12:46:23.380Z,1.12
2022-12-17T12:49:14.533Z,1.19
2022-12-17T12:52:00.041Z,1.20
2022-12-17T12:54:47.939Z,1.26
2022-12-17T12:57:51.599Z,1.35
2022-12-17T13:00:46.119Z,1.29
2022-12-17T13:03:50.635Z,1.30
2022-12-17T13:06:36.581Z,1.43
2022-12-17T13:09:30.907Z,1.61
2022-12-17T13:12:02.294Z,1.73
2022-12-17T13:14:33.657Z,1.78
2022-12-17T13:17:16.064Z,1.78
2022-12-17T13:19:44.202Z,1.84
2022-12-17T13:22:10.704Z,1.90
2022-12-17T13:24:37.309Z,1.89
2022-12-17T13:27:03.929Z,1.92
2022-12-17T13:29:34.381Z,1.92
2022-12-17T13:32:01.194Z,1.92
2022-12-17T13:34:30.227Z,1.90
2022-12-17T13:36:59.952Z,1.78
2022-12-17T13:39:39.090Z,1.68
2022-12-17T13:42:05.928Z,1.67
2022-12-17T13:44:44.789Z,1.74
2022-12-17T13:47:38.425Z,1.73
2022-12-17T13:53:12.269Z,1.54
2022-12-17T13:55:39.373Z,1.43
2022-12-17T13:58:06.005Z,1.31
2022-12-17T14:00:32.980Z,1.19
2022-12-17T14:03:10.384Z,1.17
2022-12-17T14:05:42.456Z,1.14
2022-12-17T14:08:14.080Z,1.05
2022-12-17T14:10:49.661Z,1.04
2022-12-17T14:13:16.762Z,1.05
2022-12-17T14:15:51.233Z,0.93
2022-12-17T14:18:19.732Z,0.82
2022-12-17T14:20:47.330Z,0.80
2022-12-17T14:23:29.154Z,0.78
2022-12-17T14:25:56.680Z,0.77
2022-12-17T14:28:38.371Z,0.65
2022-12-17T14:34:13.557Z,0.47
2022-12-17T14:36:42.304Z,0.46
2022-12-17T14:39:18.670Z,0.44
2022-12-17T14:42:03.990Z,0.33
2022-12-17T14:44:31.413Z,0.22
2022-12-17T14:47:13.910Z,0.19
2022-12-17T14:49:58.395Z,0.12
2022-12-17T14:52:45.571Z,0.12
2022-12-17T14:55:38.376Z,0.14
2022-12-17T14:58:18.167Z,0.09
2022-12-17T15:00:48.440Z,0.02
2022-12-17T15:03:22.575Z,0.01
2022-12-17T15:05:53.312Z,0.01
2022-12-17T15:08:20.586Z,-0.01
2022-12-17T15:10:47.329Z,-0.07
2022-12-17T15:13:14.297Z,-0.12
2022-12-17T15:15:40.998Z,-0.20
2022-12-17T15:18:07.939Z,-0.23
2022-12-17T15:20:34.774Z,-0.29
2022-12-17T15:23:02.226Z,-0.36
2022-12-17T15:25:31.002Z,-0.34
2022-12-17T15:27:57.877Z,-0.30
2022-12-17T15:30:24.636Z,-0.35
2022-12-17T15:32:51.603Z,-0.48
2022-12-17T15:35:18.582Z,-0.62
2022-12-17T15:37:45.381Z,-0.65
2022-12-17T15:40:12.532Z,-0.67
2022-12-17T15:43:02.887Z,-0.77
2022-12-17T15:45:33.759Z,-0.82
2022-12-17T15:48:01.809Z,-0.81
2022-12-17T15:50:28.690Z,-0.82
2022-12-17T15:52:55.401Z,-0.89
2022-12-17T15:55:22.839Z,-0.86
2022-12-17T15:57:49.621Z,-0.84
2022-12-17T16:00:16.668Z,-0.92
2022-12-17T16:02:43.530Z,-0.94
2022-12-17T16:05:10.669Z,-0.91
2022-12-17T16:07:38.075Z,-0.92
2022-12-17T16:10:06.270Z,-0.93
2022-12-17T16:12:33.115Z,-0.97
2022-12-17T16:14:59.908Z,-1.00
2022-12-17T16:17:26.642Z,-1.08
2022-12-17T16:19:53.401Z,-1.08
2022-12-17T16:22:20.098Z,-1.00
2022-12-17T16:24:47.095Z,-0.87
2022-12-17T16:27:14.797Z,-0.73
2022-12-17T16:29:41.546Z,-0.61
2022-12-17T16:32:08.734Z,-0.49
2022-12-17T16:34:35.557Z,-0.39
2022-12-17T16:37:02.270Z,-0.29
2022-12-17T16:39:29.139Z,-0.20
2022-12-17T16:41:55.842Z,-0.12
2022-12-17T16:44:22.598Z,-0.05
2022-12-17T16:46:49.644Z,0.02
2022-12-17T16:49:19.331Z,0.09
2022-12-17T16:51:49.249Z,0.14
2022-12-17T16:54:18.733Z,0.21
2022-12-17T16:56:46.229Z,0.24
2022-12-17T16:59:14.604Z,0.29
2022-12-17T17:01:44.825Z,0.32
2022-12-17T17:04:13.138Z,0.36
2022-12-17T17:06:45.839Z,0.37
2022-12-17T17:09:13.350Z,0.40
2022-12-17T17:11:40.382Z,0.42
2022-12-17T17:14:07.873Z,0.44
2022-12-17T17:16:36.048Z,0.46
2022-12-17T17:19:03.963Z,0.46
2022-12-17T17:21:32.986Z,0.48
2022-12-17T17:24:18.429Z,0.48
2022-12-17T17:26:47.521Z,0.49
2022-12-17T17:29:14.338Z,0.51
2022-12-17T17:34:27.881Z,0.52
2022-12-17T17:36:54.629Z,0.51
2022-12-17T17:39:21.480Z,0.51
2022-12-17T17:41:48.272Z,0.53
2022-12-17T17:44:15.456Z,0.52
2022-12-17T17:46:42.734Z,0.53
2022-12-17T17:49:10.625Z,0.51
2022-12-17T17:54:38.292Z,0.51
2022-12-17T17:57:05.653Z,0.51
2022-12-17T17:59:34.172Z,0.50
2022-12-17T18:02:02.154Z,0.49
2022-12-17T18:04:29.019Z,0.48
2022-12-17T18:09:43.173Z,0.48
2022-12-17T18:12:28.366Z,0.47
2022-12-17T18:15:13.777Z,0.48
2022-12-17T18:17:41.310Z,0.46
2022-12-17T18:20:09.828Z,0.46
2022-12-17T18:22:36.966Z,0.46
2022-12-17T18:25:04.065Z,0.46
2022-12-17T18:27:30.815Z,0.45
2022-12-17T18:29:57.481Z,0.44
2022-12-17T18:32:24.310Z,0.44
2022-12-17T18:34:51.062Z,0.42
2022-12-17T18:37:17.893Z,0.40
2022-12-17T18:39:44.613Z,0.40
2022-12-17T18:42:30.289Z,0.41
2022-12-17T18:44:57.045Z,0.40
2022-12-17T18:47:25.463Z,0.39
2022-12-17T18:49:52.531Z,0.37
2022-12-17T18:52:19.473Z,0.37
2022-12-17T18:54:46.370Z,0.37
2022-12-17T18:57:13.387Z,0.36
2022-12-17T18:59:41.261Z,0.36
2022-12-17T19:02:12.948Z,0.34
2022-12-17T19:04:41.103Z,0.35
2022-12-17T19:07:07.751Z,0.33
2022-12-17T19:09:35.815Z,0.33
2022-12-17T19:12:07.803Z,0.32
2022-12-17T19:14:34.825Z,0.31
2022-12-17T19:17:02.265Z,0.32
2022-12-17T19:19:29.147Z,0.30
2022-12-17T19:21:56.367Z,0.29
2022-12-17T19:24:23.785Z,0.26
2022-12-17T19:26:51.624Z,0.28
2022-12-17T19:29:20.097Z,0.25
2022-12-17T19:31:47.128Z,0.24
2022-12-17T19:34:15.643Z,0.23
2022-12-17T19:36:42.600Z,0.23
2022-12-17T19:39:12.263Z,0.22
2022-12-17T19:41:39.173Z,0.23
2022-12-17T19:44:07.760Z,0.22
2022-12-17T19:46:35.840Z,0.22
2022-12-17T19:49:03.213Z,0.22
2022-12-17T19:51:31.130Z,0.21
2022-12-17T19:54:00.729Z,0.21
2022-12-17T19:56:34.926Z,0.20
2022-12-17T19:59:09.700Z,0.19
2022-12-17T20:01:42.881Z,0.18
2022-12-17T20:04:11.940Z,0.16
2022-12-17T20:06:38.644Z,0.14
2022-12-17T20:09:06.260Z,0.13
2022-12-17T20:11:33.275Z,0.12
2022-12-17T20:14:06.197Z,0.11
2022-12-17T20:16:50.200Z,0.11
2022-12-17T20:19:20.141Z,0.12
2022-12-17T20:21:47.812Z,0.14
2022-12-17T20:24:15.354Z,0.11
2022-12-17T20:26:42.876Z,0.10
2022-12-17T20:29:09.622Z,0.07
2022-12-17T20:31:37.568Z,0.07
2022-12-17T20:34:05.711Z,0.06
2022-12-17T20:36:33.178Z,0.06
2022-12-17T20:39:00.432Z,0.06
2022-12-17T20:41:29.059Z,0.04
2022-12-17T20:43:56.691Z,0.02
2022-12-17T20:46:24.927Z,0.03
2022-12-17T20:48:52.323Z,0.02
2022-12-17T20:51:26.898Z,-0.01
2022-12-17T20:53:56.052Z,-0.02
2022-12-17T20:56:26.498Z,-0.03
2022-12-17T20:59:17.088Z,-0.01
2022-12-17T21:01:44.605Z,-0.03
2022-12-17T21:04:13.266Z,-0.05
2022-12-17T21:06:47.437Z,-0.08
2022-12-17T21:09:15.172Z,-0.08
2022-12-17T21:11:43.529Z,-0.12
2022-12-17T21:14:14.730Z,-0.13
2022-12-17T21:16:42.513Z,-0.12
2022-12-17T21:19:11.880Z,-0.14
2022-12-17T21:21:39.013Z,-0.15
2022-12-17T21:24:06.946Z,-0.15
2022-12-17T21:26:39.102Z,-0.15
2022-12-17T21:29:07.703Z,-0.15
2022-12-17T21:31:38.386Z,-0.17
2022-12-17T21:34:06.642Z,-0.15
2022-12-17T21:36:34.278Z,-0.17
2022-12-17T21:39:02.135Z,-0.18
2022-12-17T21:41:38.531Z,-0.18
2022-12-17T21:44:07.982Z,-0.17
2022-12-17T21:46:35.361Z,-0.18
2022-12-17T21:49:03.851Z,-0.20
2022-12-17T21:51:31.976Z,-0.21
2022-12-17T21:54:01.225Z,-0.21
2022-12-17T21:56:28.565Z,-0.22
2022-12-17T21:59:01.015Z,-0.23
2022-12-17T22:01:31.717Z,-0.21
2022-12-17T22:03:58.971Z,-0.13
2022-12-17T22:06:28.792Z,-0.19
2022-12-17T22:08:59.693Z,-0.23
2022-12-17T22:11:33.170Z,-0.27
2022-12-17T22:14:07.307Z,-0.28
2022-12-17T22:16:42.533Z,-0.30
2022-12-17T22:19:11.188Z,-0.29
2022-12-17T22:21:39.742Z,-0.28
2022-12-17T22:24:07.248Z,-0.30
2022-12-17T22:26:34.168Z,-0.31
2022-12-17T22:29:01.188Z,-0.31
2022-12-17T22:31:46.176Z,-0.31
2022-12-17T22:35:40.232Z,-0.33
2022-12-17T22:41:14.502Z,-0.35
2022-12-17T22:44:03.752Z,-0.33
2022-12-17T22:44:49.040Z,-0.35
2022-12-17T22:45:41.192Z,-0.38
2022-12-17T22:48:09.674Z,-0.41
2022-12-17T22:50:40.256Z,-0.40
2022-12-17T22:53:11.094Z,-0.39
2022-12-17T22:55:38.392Z,-0.41
2022-12-17T22:58:05.587Z,-0.40
2022-12-17T23:00:34.162Z,-0.40
2022-12-17T23:03:01.143Z,-0.39
2022-12-17T23:05:28.747Z,-0.38
2022-12-17T23:07:56.265Z,-0.38
2022-12-17T23:10:23.319Z,-0.39
2022-12-17T23:12:50.802Z,-0.40
2022-12-17T23:15:38.363Z,-0.41
2022-12-17T23:18:06.919Z,-0.43
2022-12-17T23:20:34.859Z,-0.43
2022-12-17T23:23:02.143Z,-0.44
2022-12-17T23:25:29.313Z,-0.44
2022-12-17T23:27:56.309Z,-0.46
2022-12-17T23:30:23.129Z,-0.49
2022-12-17T23:32:50.264Z,-0.50
2022-12-17T23:35:17.179Z,-0.54
2022-12-17T23:37:44.021Z,-0.55
2022-12-17T23:40:12.478Z,-0.56
2022-12-17T23:42:39.300Z,-0.57
2022-12-17T23:45:07.175Z,-0.57
2022-12-17T23:47:38.340Z,-0.58
2022-12-17T23:50:14.656Z,-0.60
2022-12-17T23:52:42.262Z,-0.61
2022-12-17T23:55:11.510Z,-0.61
2022-12-17T23:57:38.318Z,-0.61
